sensor_id;sensor_type;location;lat;lon;timestamp;P1;durP1;ratioP1;P2;durP2;ratioP2
66927;SDS011;59882;45.624;11.698;2023-05-06T00:01:33;35.07;;;29.03;;
66927;SDS011;59882;45.624;11.698;2023-05-06T00:03:58;38.53;;;28.57;;
66927;SDS011;59882;45.624;11.698;2023-05-06T00:06:24;38.27;;;29.43;;
66927;SDS011;59882;45.624;11.698;2023-05-06T00:08:51;39.78;;;29.23;;
66927;SDS011;59882;45.624;11.698;2023-05-06T00:11:17;38.90;;;28.63;;
66927;SDS011;59882;45.624;11.698;2023-05-06T00:13:42;37.93;;;28.80;;
66927;SDS011;59882;45.624;11.698;2023-05-06T00:16:08;34.60;;;27.03;;
66927;SDS011;59882;45.624;11.698;2023-05-06T00:18:33;38.88;;;29.70;;
66927;SDS011;59882;45.624;11.698;2023-05-06T00:20:59;37.13;;;29.57;;
66927;SDS011;59882;45.624;11.698;2023-05-06T00:23:25;40.40;;;28.77;;
66927;SDS011;59882;45.624;11.698;2023-05-06T00:25:52;36.57;;;28.23;;
66927;SDS011;59882;45.624;11.698;2023-05-06T00:28:18;46.80;;;28.92;;
66927;SDS011;59882;45.624;11.698;2023-05-06T00:30:43;40.40;;;28.73;;
66927;SDS011;59882;45.624;11.698;2023-05-06T00:33:09;38.95;;;28.58;;
66927;SDS011;59882;45.624;11.698;2023-05-06T00:35:34;40.03;;;27.90;;
66927;SDS011;59882;45.624;11.698;2023-05-06T00:38:07;34.77;;;28.73;;
66927;SDS011;59882;45.624;11.698;2023-05-06T00:40:34;37.90;;;26.50;;
66927;SDS011;59882;45.624;11.698;2023-05-06T00:43:00;35.53;;;26.95;;
66927;SDS011;59882;45.624;11.698;2023-05-06T00:45:26;41.42;;;28.98;;
66927;SDS011;59882;45.624;11.698;2023-05-06T00:47:53;38.03;;;28.23;;
66927;SDS011;59882;45.624;11.698;2023-05-06T00:50:20;32.85;;;26.38;;
66927;SDS011;59882;45.624;11.698;2023-05-06T00:52:46;32.33;;;25.25;;
66927;SDS011;59882;45.624;11.698;2023-05-06T00:55:12;33.80;;;26.00;;
66927;SDS011;59882;45.624;11.698;2023-05-06T00:57:39;33.50;;;25.73;;
66927;SDS011;59882;45.624;11.698;2023-05-06T01:00:05;34.77;;;25.53;;
66927;SDS011;59882;45.624;11.698;2023-05-06T01:02:31;30.48;;;25.98;;
66927;SDS011;59882;45.624;11.698;2023-05-06T01:04:57;34.07;;;26.50;;
66927;SDS011;59882;45.624;11.698;2023-05-06T01:12:56;31.75;;;24.63;;
66927;SDS011;59882;45.624;11.698;2023-05-06T01:15:32;30.17;;;25.20;;
66927;SDS011;59882;45.624;11.698;2023-05-06T01:18:10;32.53;;;24.37;;
66927;SDS011;59882;45.624;11.698;2023-05-06T01:20:41;32.30;;;24.48;;
66927;SDS011;59882;45.624;11.698;2023-05-06T01:23:11;30.88;;;24.92;;
66927;SDS011;59882;45.624;11.698;2023-05-06T01:25:38;31.75;;;24.92;;
66927;SDS011;59882;45.624;11.698;2023-05-06T01:28:04;31.85;;;25.13;;
66927;SDS011;59882;45.624;11.698;2023-05-06T01:30:35;30.33;;;24.80;;
66927;SDS011;59882;45.624;11.698;2023-05-06T01:33:09;33.05;;;25.55;;
66927;SDS011;59882;45.624;11.698;2023-05-06T01:35:44;33.53;;;26.13;;
66927;SDS011;59882;45.624;11.698;2023-05-06T01:39:05;31.02;;;24.50;;
66927;SDS011;59882;45.624;11.698;2023-05-06T01:41:29;28.27;;;23.33;;
66927;SDS011;59882;45.624;11.698;2023-05-06T01:43:57;32.00;;;24.23;;
66927;SDS011;59882;45.624;11.698;2023-05-06T01:46:25;31.70;;;24.73;;
66927;SDS011;59882;45.624;11.698;2023-05-06T01:48:53;31.38;;;24.92;;
66927;SDS011;59882;45.624;11.698;2023-05-06T01:51:20;29.20;;;23.73;;
66927;SDS011;59882;45.624;11.698;2023-05-06T01:53:46;28.05;;;23.45;;
66927;SDS011;59882;45.624;11.698;2023-05-06T01:56:13;26.10;;;22.93;;
66927;SDS011;59882;45.624;11.698;2023-05-06T01:58:40;34.40;;;24.55;;
66927;SDS011;59882;45.624;11.698;2023-05-06T02:01:05;33.00;;;24.63;;
66927;SDS011;59882;45.624;11.698;2023-05-06T02:03:31;28.30;;;23.17;;
66927;SDS011;59882;45.624;11.698;2023-05-06T02:05:57;27.13;;;22.67;;
66927;SDS011;59882;45.624;11.698;2023-05-06T02:08:23;32.45;;;22.17;;
66927;SDS011;59882;45.624;11.698;2023-05-06T02:10:48;30.63;;;22.90;;
66927;SDS011;59882;45.624;11.698;2023-05-06T02:13:15;30.33;;;23.50;;
66927;SDS011;59882;45.624;11.698;2023-05-06T02:15:42;33.67;;;24.57;;
66927;SDS011;59882;45.624;11.698;2023-05-06T02:18:08;29.70;;;22.27;;
66927;SDS011;59882;45.624;11.698;2023-05-06T02:20:33;25.93;;;22.57;;
66927;SDS011;59882;45.624;11.698;2023-05-06T02:22:59;30.52;;;23.23;;
66927;SDS011;59882;45.624;11.698;2023-05-06T02:25:24;30.23;;;22.03;;
66927;SDS011;59882;45.624;11.698;2023-05-06T02:27:50;29.70;;;23.47;;
66927;SDS011;59882;45.624;11.698;2023-05-06T02:30:16;28.73;;;22.23;;
66927;SDS011;59882;45.624;11.698;2023-05-06T02:32:41;28.57;;;21.53;;
66927;SDS011;59882;45.624;11.698;2023-05-06T02:35:07;28.42;;;21.60;;
66927;SDS011;59882;45.624;11.698;2023-05-06T02:37:33;29.80;;;23.00;;
66927;SDS011;59882;45.624;11.698;2023-05-06T02:39:59;26.98;;;21.42;;
66927;SDS011;59882;45.624;11.698;2023-05-06T02:42:24;29.17;;;22.73;;
66927;SDS011;59882;45.624;11.698;2023-05-06T02:44:50;25.87;;;20.37;;
66927;SDS011;59882;45.624;11.698;2023-05-06T02:47:15;28.03;;;22.70;;
66927;SDS011;59882;45.624;11.698;2023-05-06T02:49:41;30.40;;;23.17;;
66927;SDS011;59882;45.624;11.698;2023-05-06T02:52:06;27.58;;;23.00;;
66927;SDS011;59882;45.624;11.698;2023-05-06T02:54:32;32.20;;;21.87;;
66927;SDS011;59882;45.624;11.698;2023-05-06T02:56:58;30.50;;;22.45;;
66927;SDS011;59882;45.624;11.698;2023-05-06T02:59:23;22.87;;;19.83;;
66927;SDS011;59882;45.624;11.698;2023-05-06T03:01:49;26.70;;;21.83;;
66927;SDS011;59882;45.624;11.698;2023-05-06T03:04:15;26.73;;;21.45;;
66927;SDS011;59882;45.624;11.698;2023-05-06T03:06:40;23.97;;;20.53;;
66927;SDS011;59882;45.624;11.698;2023-05-06T03:09:06;21.63;;;18.90;;
66927;SDS011;59882;45.624;11.698;2023-05-06T03:11:32;23.63;;;19.80;;
66927;SDS011;59882;45.624;11.698;2023-05-06T03:13:58;23.42;;;18.45;;
66927;SDS011;59882;45.624;11.698;2023-05-06T03:16:23;23.03;;;17.80;;
66927;SDS011;59882;45.624;11.698;2023-05-06T03:18:49;22.23;;;17.58;;
66927;SDS011;59882;45.624;11.698;2023-05-06T03:21:15;22.43;;;17.97;;
66927;SDS011;59882;45.624;11.698;2023-05-06T03:23:40;23.73;;;19.17;;
66927;SDS011;59882;45.624;11.698;2023-05-06T03:26:06;26.45;;;18.67;;
66927;SDS011;59882;45.624;11.698;2023-05-06T03:28:32;26.60;;;19.10;;
66927;SDS011;59882;45.624;11.698;2023-05-06T03:30:57;23.77;;;19.13;;
66927;SDS011;59882;45.624;11.698;2023-05-06T03:33:23;24.07;;;18.23;;
66927;SDS011;59882;45.624;11.698;2023-05-06T03:35:49;26.80;;;19.23;;
66927;SDS011;59882;45.624;11.698;2023-05-06T03:38:14;22.00;;;18.50;;
66927;SDS011;59882;45.624;11.698;2023-05-06T03:40:40;23.55;;;18.42;;
66927;SDS011;59882;45.624;11.698;2023-05-06T03:43:06;27.30;;;18.67;;
66927;SDS011;59882;45.624;11.698;2023-05-06T03:45:31;24.27;;;18.42;;
66927;SDS011;59882;45.624;11.698;2023-05-06T03:47:57;27.27;;;20.43;;
66927;SDS011;59882;45.624;11.698;2023-05-06T03:50:23;24.48;;;18.02;;
66927;SDS011;59882;45.624;11.698;2023-05-06T03:52:48;28.90;;;21.70;;
66927;SDS011;59882;45.624;11.698;2023-05-06T03:55:14;27.10;;;21.37;;
66927;SDS011;59882;45.624;11.698;2023-05-06T03:57:40;30.63;;;20.67;;
66927;SDS011;59882;45.624;11.698;2023-05-06T04:00:05;31.17;;;23.98;;
66927;SDS011;59882;45.624;11.698;2023-05-06T04:02:33;30.20;;;23.63;;
66927;SDS011;59882;45.624;11.698;2023-05-06T04:04:59;34.67;;;25.60;;
66927;SDS011;59882;45.624;11.698;2023-05-06T04:07:25;34.47;;;24.63;;
66927;SDS011;59882;45.624;11.698;2023-05-06T04:09:50;34.30;;;25.83;;
66927;SDS011;59882;45.624;11.698;2023-05-06T04:12:16;34.37;;;25.50;;
66927;SDS011;59882;45.624;11.698;2023-05-06T04:14:42;34.63;;;26.10;;
66927;SDS011;59882;45.624;11.698;2023-05-06T04:17:07;27.90;;;22.80;;
66927;SDS011;59882;45.624;11.698;2023-05-06T04:19:33;32.63;;;22.88;;
66927;SDS011;59882;45.624;11.698;2023-05-06T04:21:58;25.27;;;21.53;;
66927;SDS011;59882;45.624;11.698;2023-05-06T04:24:24;26.60;;;20.77;;
66927;SDS011;59882;45.624;11.698;2023-05-06T04:26:52;23.23;;;20.75;;
66927;SDS011;59882;45.624;11.698;2023-05-06T04:29:18;28.15;;;22.05;;
66927;SDS011;59882;45.624;11.698;2023-05-06T04:31:43;29.50;;;21.80;;
66927;SDS011;59882;45.624;11.698;2023-05-06T04:34:10;26.38;;;21.83;;
66927;SDS011;59882;45.624;11.698;2023-05-06T04:36:36;28.35;;;21.13;;
66927;SDS011;59882;45.624;11.698;2023-05-06T04:39:02;24.40;;;19.20;;
66927;SDS011;59882;45.624;11.698;2023-05-06T04:41:28;24.45;;;21.45;;
66927;SDS011;59882;45.624;11.698;2023-05-06T04:43:55;32.97;;;19.90;;
66927;SDS011;59882;45.624;11.698;2023-05-06T04:46:20;27.77;;;21.17;;
66927;SDS011;59882;45.624;11.698;2023-05-06T04:48:47;24.07;;;18.53;;
66927;SDS011;59882;45.624;11.698;2023-05-06T04:51:13;24.02;;;19.60;;
66927;SDS011;59882;45.624;11.698;2023-05-06T04:53:39;27.80;;;19.97;;
66927;SDS011;59882;45.624;11.698;2023-05-06T04:56:05;23.67;;;19.35;;
66927;SDS011;59882;45.624;11.698;2023-05-06T04:58:31;25.33;;;19.08;;
66927;SDS011;59882;45.624;11.698;2023-05-06T05:00:57;27.17;;;20.13;;
66927;SDS011;59882;45.624;11.698;2023-05-06T05:03:27;26.50;;;19.97;;
66927;SDS011;59882;45.624;11.698;2023-05-06T05:05:52;22.88;;;20.35;;
66927;SDS011;59882;45.624;11.698;2023-05-06T05:08:18;25.57;;;19.87;;
66927;SDS011;59882;45.624;11.698;2023-05-06T05:10:43;23.97;;;20.20;;
66927;SDS011;59882;45.624;11.698;2023-05-06T05:13:09;27.02;;;20.00;;
66927;SDS011;59882;45.624;11.698;2023-05-06T05:15:36;25.20;;;20.37;;
66927;SDS011;59882;45.624;11.698;2023-05-06T05:18:02;26.10;;;20.27;;
66927;SDS011;59882;45.624;11.698;2023-05-06T05:20:28;25.13;;;20.00;;
66927;SDS011;59882;45.624;11.698;2023-05-06T05:22:54;28.10;;;19.67;;
66927;SDS011;59882;45.624;11.698;2023-05-06T05:25:20;23.48;;;19.15;;
66927;SDS011;59882;45.624;11.698;2023-05-06T05:27:45;23.87;;;18.77;;
66927;SDS011;59882;45.624;11.698;2023-05-06T05:30:11;23.88;;;19.98;;
66927;SDS011;59882;45.624;11.698;2023-05-06T05:32:37;22.83;;;18.73;;
66927;SDS011;59882;45.624;11.698;2023-05-06T05:35:03;23.77;;;20.27;;
66927;SDS011;59882;45.624;11.698;2023-05-06T05:37:29;27.65;;;19.38;;
66927;SDS011;59882;45.624;11.698;2023-05-06T05:39:55;23.00;;;20.35;;
66927;SDS011;59882;45.624;11.698;2023-05-06T05:42:21;22.70;;;18.97;;
66927;SDS011;59882;45.624;11.698;2023-05-06T05:44:47;20.77;;;17.98;;
66927;SDS011;59882;45.624;11.698;2023-05-06T05:47:13;24.03;;;18.90;;
66927;SDS011;59882;45.624;11.698;2023-05-06T05:49:39;24.15;;;18.08;;
66927;SDS011;59882;45.624;11.698;2023-05-06T05:52:05;24.80;;;19.25;;
66927;SDS011;59882;45.624;11.698;2023-05-06T05:54:31;21.65;;;18.70;;
66927;SDS011;59882;45.624;11.698;2023-05-06T05:56:56;25.07;;;19.20;;
66927;SDS011;59882;45.624;11.698;2023-05-06T05:59:22;22.90;;;18.88;;
66927;SDS011;59882;45.624;11.698;2023-05-06T06:01:48;21.98;;;18.27;;
66927;SDS011;59882;45.624;11.698;2023-05-06T06:04:14;20.27;;;18.07;;
66927;SDS011;59882;45.624;11.698;2023-05-06T06:06:40;24.13;;;19.42;;
66927;SDS011;59882;45.624;11.698;2023-05-06T06:09:06;23.53;;;18.23;;
66927;SDS011;59882;45.624;11.698;2023-05-06T06:11:32;24.80;;;19.02;;
66927;SDS011;59882;45.624;11.698;2023-05-06T06:13:58;25.33;;;17.70;;
66927;SDS011;59882;45.624;11.698;2023-05-06T06:16:23;20.30;;;16.88;;
66927;SDS011;59882;45.624;11.698;2023-05-06T06:18:49;20.70;;;16.97;;
66927;SDS011;59882;45.624;11.698;2023-05-06T06:21:15;20.42;;;16.70;;
66927;SDS011;59882;45.624;11.698;2023-05-06T06:23:40;18.20;;;15.20;;
66927;SDS011;59882;45.624;11.698;2023-05-06T06:26:06;20.47;;;15.70;;
66927;SDS011;59882;45.624;11.698;2023-05-06T06:28:32;20.45;;;16.13;;
66927;SDS011;59882;45.624;11.698;2023-05-06T06:30:57;19.03;;;15.30;;
66927;SDS011;59882;45.624;11.698;2023-05-06T06:33:23;21.08;;;16.80;;
66927;SDS011;59882;45.624;11.698;2023-05-06T06:35:48;22.60;;;16.87;;
66927;SDS011;59882;45.624;11.698;2023-05-06T06:38:14;22.52;;;16.55;;
66927;SDS011;59882;45.624;11.698;2023-05-06T06:40:40;20.47;;;16.50;;
66927;SDS011;59882;45.624;11.698;2023-05-06T06:43:05;21.17;;;16.87;;
66927;SDS011;59882;45.624;11.698;2023-05-06T06:45:31;23.73;;;16.23;;
66927;SDS011;59882;45.624;11.698;2023-05-06T06:47:57;22.53;;;17.77;;
66927;SDS011;59882;45.624;11.698;2023-05-06T06:50:22;23.17;;;16.67;;
66927;SDS011;59882;45.624;11.698;2023-05-06T06:52:48;19.83;;;15.63;;
66927;SDS011;59882;45.624;11.698;2023-05-06T06:55:13;23.43;;;17.30;;
66927;SDS011;59882;45.624;11.698;2023-05-06T06:57:39;21.67;;;18.20;;
66927;SDS011;59882;45.624;11.698;2023-05-06T07:00:05;23.23;;;17.35;;
66927;SDS011;59882;45.624;11.698;2023-05-06T07:02:31;21.27;;;17.27;;
66927;SDS011;59882;45.624;11.698;2023-05-06T07:04:57;22.63;;;17.65;;
66927;SDS011;59882;45.624;11.698;2023-05-06T07:07:22;22.53;;;17.83;;
66927;SDS011;59882;45.624;11.698;2023-05-06T07:09:48;25.60;;;18.33;;
66927;SDS011;59882;45.624;11.698;2023-05-06T07:12:14;21.63;;;19.10;;
66927;SDS011;59882;45.624;11.698;2023-05-06T07:14:39;23.37;;;18.77;;
66927;SDS011;59882;45.624;11.698;2023-05-06T07:17:05;22.60;;;19.75;;
66927;SDS011;59882;45.624;11.698;2023-05-06T07:19:31;22.30;;;19.80;;
66927;SDS011;59882;45.624;11.698;2023-05-06T07:21:57;23.13;;;18.23;;
66927;SDS011;59882;45.624;11.698;2023-05-06T07:24:23;26.20;;;20.35;;
66927;SDS011;59882;45.624;11.698;2023-05-06T07:26:49;25.17;;;20.20;;
66927;SDS011;59882;45.624;11.698;2023-05-06T07:29:14;23.30;;;19.27;;
66927;SDS011;59882;45.624;11.698;2023-05-06T07:31:40;26.70;;;22.00;;
66927;SDS011;59882;45.624;11.698;2023-05-06T07:34:05;24.90;;;21.08;;
66927;SDS011;59882;45.624;11.698;2023-05-06T07:36:31;24.73;;;20.10;;
66927;SDS011;59882;45.624;11.698;2023-05-06T07:39:04;32.42;;;22.30;;
66927;SDS011;59882;45.624;11.698;2023-05-06T07:41:32;27.38;;;22.55;;
66927;SDS011;59882;45.624;11.698;2023-05-06T07:43:58;26.27;;;23.00;;
66927;SDS011;59882;45.624;11.698;2023-05-06T07:46:24;26.90;;;22.48;;
66927;SDS011;59882;45.624;11.698;2023-05-06T07:48:49;30.60;;;23.23;;
66927;SDS011;59882;45.624;11.698;2023-05-06T07:51:15;29.70;;;23.43;;
66927;SDS011;59882;45.624;11.698;2023-05-06T07:53:41;29.70;;;23.38;;
66927;SDS011;59882;45.624;11.698;2023-05-06T07:56:07;29.40;;;23.40;;
66927;SDS011;59882;45.624;11.698;2023-05-06T07:58:33;27.75;;;23.25;;
66927;SDS011;59882;45.624;11.698;2023-05-06T08:00:59;26.10;;;23.27;;
66927;SDS011;59882;45.624;11.698;2023-05-06T08:03:25;28.10;;;23.02;;
66927;SDS011;59882;45.624;11.698;2023-05-06T08:05:50;28.77;;;23.90;;
66927;SDS011;59882;45.624;11.698;2023-05-06T08:08:17;26.52;;;22.85;;
66927;SDS011;59882;45.624;11.698;2023-05-06T08:10:44;28.35;;;22.85;;
66927;SDS011;59882;45.624;11.698;2023-05-06T08:13:10;27.33;;;22.98;;
66927;SDS011;59882;45.624;11.698;2023-05-06T08:15:36;28.87;;;23.77;;
66927;SDS011;59882;45.624;11.698;2023-05-06T08:18:02;26.13;;;21.02;;
66927;SDS011;59882;45.624;11.698;2023-05-06T08:20:28;24.90;;;20.27;;
66927;SDS011;59882;45.624;11.698;2023-05-06T08:22:53;26.30;;;21.10;;
66927;SDS011;59882;45.624;11.698;2023-05-06T08:25:19;25.33;;;21.75;;
66927;SDS011;59882;45.624;11.698;2023-05-06T08:27:44;24.17;;;19.73;;
66927;SDS011;59882;45.624;11.698;2023-05-06T08:30:10;27.85;;;19.60;;
66927;SDS011;59882;45.624;11.698;2023-05-06T08:32:39;27.30;;;20.27;;
66927;SDS011;59882;45.624;11.698;2023-05-06T08:35:05;24.75;;;20.50;;
66927;SDS011;59882;45.624;11.698;2023-05-06T08:37:31;27.30;;;21.98;;
66927;SDS011;59882;45.624;11.698;2023-05-06T08:39:57;28.20;;;22.63;;
66927;SDS011;59882;45.624;11.698;2023-05-06T08:42:23;23.00;;;19.37;;
66927;SDS011;59882;45.624;11.698;2023-05-06T08:44:50;24.25;;;20.38;;
66927;SDS011;59882;45.624;11.698;2023-05-06T08:47:17;23.73;;;20.20;;
66927;SDS011;59882;45.624;11.698;2023-05-06T08:49:44;26.23;;;21.17;;
66927;SDS011;59882;45.624;11.698;2023-05-06T08:52:10;26.87;;;22.47;;
66927;SDS011;59882;45.624;11.698;2023-05-06T08:54:36;25.17;;;22.30;;
66927;SDS011;59882;45.624;11.698;2023-05-06T08:57:03;29.43;;;22.30;;
66927;SDS011;59882;45.624;11.698;2023-05-06T08:59:32;29.60;;;22.20;;
66927;SDS011;59882;45.624;11.698;2023-05-06T09:01:59;26.73;;;20.63;;
66927;SDS011;59882;45.624;11.698;2023-05-06T09:04:26;24.58;;;19.55;;
66927;SDS011;59882;45.624;11.698;2023-05-06T09:06:52;23.92;;;19.65;;
66927;SDS011;59882;45.624;11.698;2023-05-06T09:09:18;22.97;;;19.10;;
66927;SDS011;59882;45.624;11.698;2023-05-06T09:11:43;20.92;;;17.30;;
66927;SDS011;59882;45.624;11.698;2023-05-06T09:16:36;22.80;;;17.23;;
66927;SDS011;59882;45.624;11.698;2023-05-06T09:19:03;21.17;;;16.35;;
66927;SDS011;59882;45.624;11.698;2023-05-06T09:21:36;23.77;;;18.85;;
66927;SDS011;59882;45.624;11.698;2023-05-06T09:24:03;21.17;;;18.87;;
66927;SDS011;59882;45.624;11.698;2023-05-06T09:26:31;21.38;;;19.08;;
66927;SDS011;59882;45.624;11.698;2023-05-06T09:28:58;23.40;;;19.13;;
66927;SDS011;59882;45.624;11.698;2023-05-06T09:31:25;22.35;;;17.77;;
66927;SDS011;59882;45.624;11.698;2023-05-06T09:33:52;21.23;;;18.08;;
66927;SDS011;59882;45.624;11.698;2023-05-06T09:36:19;18.47;;;15.37;;
66927;SDS011;59882;45.624;11.698;2023-05-06T09:38:45;21.83;;;16.77;;
66927;SDS011;59882;45.624;11.698;2023-05-06T09:41:11;21.38;;;18.27;;
66927;SDS011;59882;45.624;11.698;2023-05-06T09:43:37;22.40;;;18.65;;
66927;SDS011;59882;45.624;11.698;2023-05-06T09:46:08;22.75;;;20.05;;
66927;SDS011;59882;45.624;11.698;2023-05-06T09:48:35;22.73;;;20.10;;
66927;SDS011;59882;45.624;11.698;2023-05-06T09:51:02;22.17;;;18.85;;
66927;SDS011;59882;45.624;11.698;2023-05-06T09:53:29;23.55;;;20.08;;
66927;SDS011;59882;45.624;11.698;2023-05-06T09:55:56;19.65;;;15.82;;
66927;SDS011;59882;45.624;11.698;2023-05-06T09:58:24;21.35;;;18.33;;
66927;SDS011;59882;45.624;11.698;2023-05-06T10:00:51;19.70;;;17.10;;
66927;SDS011;59882;45.624;11.698;2023-05-06T10:03:18;18.00;;;16.08;;
66927;SDS011;59882;45.624;11.698;2023-05-06T10:05:46;21.50;;;19.17;;
66927;SDS011;59882;45.624;11.698;2023-05-06T10:08:12;18.80;;;16.27;;
66927;SDS011;59882;45.624;11.698;2023-05-06T10:10:42;20.35;;;18.13;;
66927;SDS011;59882;45.624;11.698;2023-05-06T10:13:08;22.63;;;17.37;;
66927;SDS011;59882;45.624;11.698;2023-05-06T10:15:34;27.75;;;19.77;;
66927;SDS011;59882;45.624;11.698;2023-05-06T10:18:02;23.67;;;18.92;;
66927;SDS011;59882;45.624;11.698;2023-05-06T10:20:33;22.20;;;18.77;;
66927;SDS011;59882;45.624;11.698;2023-05-06T10:23:00;22.98;;;18.30;;
66927;SDS011;59882;45.624;11.698;2023-05-06T10:25:59;21.23;;;18.37;;
66927;SDS011;59882;45.624;11.698;2023-05-06T10:28:30;19.90;;;17.52;;
66927;SDS011;59882;45.624;11.698;2023-05-06T10:30:57;22.67;;;18.80;;
66927;SDS011;59882;45.624;11.698;2023-05-06T10:33:23;22.38;;;19.60;;
66927;SDS011;59882;45.624;11.698;2023-05-06T10:38:41;23.80;;;17.00;;
66927;SDS011;59882;45.624;11.698;2023-05-06T10:41:09;22.85;;;17.63;;
66927;SDS011;59882;45.624;11.698;2023-05-06T10:43:39;19.13;;;15.20;;
66927;SDS011;59882;45.624;11.698;2023-05-06T10:48:37;23.58;;;19.58;;
66927;SDS011;59882;45.624;11.698;2023-05-06T10:53:55;18.40;;;15.07;;
66927;SDS011;59882;45.624;11.698;2023-05-06T10:56:32;23.85;;;18.92;;
66927;SDS011;59882;45.624;11.698;2023-05-06T10:59:11;20.45;;;18.25;;
66927;SDS011;59882;45.624;11.698;2023-05-06T11:01:40;19.92;;;16.30;;
66927;SDS011;59882;45.624;11.698;2023-05-06T11:04:10;22.87;;;18.40;;
66927;SDS011;59882;45.624;11.698;2023-05-06T11:06:41;22.20;;;18.35;;
66927;SDS011;59882;45.624;11.698;2023-05-06T11:09:15;21.48;;;18.33;;
66927;SDS011;59882;45.624;11.698;2023-05-06T11:11:52;21.42;;;18.55;;
66927;SDS011;59882;45.624;11.698;2023-05-06T11:14:35;17.58;;;14.88;;
66927;SDS011;59882;45.624;11.698;2023-05-06T11:17:05;20.47;;;15.90;;
66927;SDS011;59882;45.624;11.698;2023-05-06T11:19:33;17.52;;;13.90;;
66927;SDS011;59882;45.624;11.698;2023-05-06T11:22:01;21.02;;;17.17;;
66927;SDS011;59882;45.624;11.698;2023-05-06T11:24:28;20.20;;;17.33;;
66927;SDS011;59882;45.624;11.698;2023-05-06T11:26:56;20.30;;;17.13;;
66927;SDS011;59882;45.624;11.698;2023-05-06T11:29:22;20.40;;;15.63;;
66927;SDS011;59882;45.624;11.698;2023-05-06T11:31:48;17.75;;;15.88;;
66927;SDS011;59882;45.624;11.698;2023-05-06T11:34:48;20.15;;;17.88;;
66927;SDS011;59882;45.624;11.698;2023-05-06T11:37:06;21.08;;;16.70;;
66927;SDS011;59882;45.624;11.698;2023-05-06T11:39:34;18.17;;;15.75;;
66927;SDS011;59882;45.624;11.698;2023-05-06T11:42:04;19.33;;;16.10;;
66927;SDS011;59882;45.624;11.698;2023-05-06T11:44:35;20.05;;;17.55;;
66927;SDS011;59882;45.624;11.698;2023-05-06T11:47:05;17.88;;;15.20;;
66927;SDS011;59882;45.624;11.698;2023-05-06T11:49:35;20.55;;;18.10;;
66927;SDS011;59882;45.624;11.698;2023-05-06T11:52:04;22.20;;;18.45;;
66927;SDS011;59882;45.624;11.698;2023-05-06T11:54:32;19.90;;;17.70;;
66927;SDS011;59882;45.624;11.698;2023-05-06T11:57:05;25.00;;;20.67;;
66927;SDS011;59882;45.624;11.698;2023-05-06T11:59:32;23.95;;;19.23;;
66927;SDS011;59882;45.624;11.698;2023-05-06T12:02:03;18.52;;;16.52;;
66927;SDS011;59882;45.624;11.698;2023-05-06T12:04:40;18.55;;;15.93;;
66927;SDS011;59882;45.624;11.698;2023-05-06T12:07:07;18.00;;;14.93;;
66927;SDS011;59882;45.624;11.698;2023-05-06T12:09:35;20.55;;;18.25;;
66927;SDS011;59882;45.624;11.698;2023-05-06T12:12:02;20.27;;;17.65;;
66927;SDS011;59882;45.624;11.698;2023-05-06T12:14:29;22.15;;;17.60;;
66927;SDS011;59882;45.624;11.698;2023-05-06T12:16:55;18.33;;;16.42;;
66927;SDS011;59882;45.624;11.698;2023-05-06T12:19:22;20.40;;;16.23;;
66927;SDS011;59882;45.624;11.698;2023-05-06T12:21:48;19.42;;;17.05;;
66927;SDS011;59882;45.624;11.698;2023-05-06T12:24:13;21.90;;;18.05;;
66927;SDS011;59882;45.624;11.698;2023-05-06T12:26:48;20.10;;;17.97;;
66927;SDS011;59882;45.624;11.698;2023-05-06T12:29:14;21.00;;;17.75;;
66927;SDS011;59882;45.624;11.698;2023-05-06T12:31:42;18.92;;;14.05;;
66927;SDS011;59882;45.624;11.698;2023-05-06T12:34:08;30.35;;;17.75;;
66927;SDS011;59882;45.624;11.698;2023-05-06T12:36:38;63.40;;;31.30;;
66927;SDS011;59882;45.624;11.698;2023-05-06T12:39:04;21.10;;;17.10;;
66927;SDS011;59882;45.624;11.698;2023-05-06T12:41:37;18.70;;;14.10;;
66927;SDS011;59882;45.624;11.698;2023-05-06T12:49:46;14.57;;;12.50;;
66927;SDS011;59882;45.624;11.698;2023-05-06T12:52:13;16.00;;;13.30;;
66927;SDS011;59882;45.624;11.698;2023-05-06T12:54:40;10.75;;;8.88;;
66927;SDS011;59882;45.624;11.698;2023-05-06T12:57:05;14.87;;;13.03;;
66927;SDS011;59882;45.624;11.698;2023-05-06T12:59:31;12.68;;;11.38;;
66927;SDS011;59882;45.624;11.698;2023-05-06T13:01:58;13.93;;;11.32;;
66927;SDS011;59882;45.624;11.698;2023-05-06T13:04:24;16.20;;;14.60;;
66927;SDS011;59882;45.624;11.698;2023-05-06T13:06:51;14.55;;;13.23;;
66927;SDS011;59882;45.624;11.698;2023-05-06T13:09:17;11.30;;;10.20;;
66927;SDS011;59882;45.624;11.698;2023-05-06T13:11:43;15.63;;;11.77;;
66927;SDS011;59882;45.624;11.698;2023-05-06T13:14:08;13.18;;;11.80;;
66927;SDS011;59882;45.624;11.698;2023-05-06T13:16:35;13.65;;;12.25;;
66927;SDS011;59882;45.624;11.698;2023-05-06T13:19:01;13.43;;;12.13;;
66927;SDS011;59882;45.624;11.698;2023-05-06T13:21:27;13.52;;;12.18;;
66927;SDS011;59882;45.624;11.698;2023-05-06T13:23:53;13.25;;;11.00;;
66927;SDS011;59882;45.624;11.698;2023-05-06T13:26:19;13.40;;;11.93;;
66927;SDS011;59882;45.624;11.698;2023-05-06T13:28:44;13.20;;;11.52;;
66927;SDS011;59882;45.624;11.698;2023-05-06T13:31:11;12.25;;;10.65;;
66927;SDS011;59882;45.624;11.698;2023-05-06T13:33:36;11.70;;;10.37;;
66927;SDS011;59882;45.624;11.698;2023-05-06T13:36:02;12.37;;;10.33;;
66927;SDS011;59882;45.624;11.698;2023-05-06T13:38:28;11.65;;;10.35;;
66927;SDS011;59882;45.624;11.698;2023-05-06T13:40:54;15.02;;;11.65;;
66927;SDS011;59882;45.624;11.698;2023-05-06T13:43:20;11.50;;;10.30;;
66927;SDS011;59882;45.624;11.698;2023-05-06T13:45:48;12.13;;;10.05;;
66927;SDS011;59882;45.624;11.698;2023-05-06T13:48:15;10.30;;;9.30;;
66927;SDS011;59882;45.624;11.698;2023-05-06T13:50:44;9.67;;;8.53;;
66927;SDS011;59882;45.624;11.698;2023-05-06T13:53:10;10.15;;;9.15;;
66927;SDS011;59882;45.624;11.698;2023-05-06T13:55:36;9.98;;;8.80;;
66927;SDS011;59882;45.624;11.698;2023-05-06T13:58:03;8.82;;;7.95;;
66927;SDS011;59882;45.624;11.698;2023-05-06T14:00:29;9.18;;;8.27;;
66927;SDS011;59882;45.624;11.698;2023-05-06T14:02:56;10.73;;;9.33;;
66927;SDS011;59882;45.624;11.698;2023-05-06T14:05:22;10.60;;;7.97;;
66927;SDS011;59882;45.624;11.698;2023-05-06T14:07:47;9.15;;;7.65;;
66927;SDS011;59882;45.624;11.698;2023-05-06T14:10:13;9.75;;;8.73;;
66927;SDS011;59882;45.624;11.698;2023-05-06T14:12:39;11.13;;;10.05;;
66927;SDS011;59882;45.624;11.698;2023-05-06T14:15:06;10.43;;;9.43;;
66927;SDS011;59882;45.624;11.698;2023-05-06T14:17:32;10.35;;;8.45;;
66927;SDS011;59882;45.624;11.698;2023-05-06T14:19:57;11.73;;;9.00;;
66927;SDS011;59882;45.624;11.698;2023-05-06T14:22:23;9.37;;;8.43;;
66927;SDS011;59882;45.624;11.698;2023-05-06T14:24:49;9.30;;;8.40;;
66927;SDS011;59882;45.624;11.698;2023-05-06T14:27:14;11.50;;;9.25;;
66927;SDS011;59882;45.624;11.698;2023-05-06T14:29:40;9.43;;;8.40;;
66927;SDS011;59882;45.624;11.698;2023-05-06T14:32:10;10.27;;;8.30;;